sensor_id;sensor_type;location;lat;lon;timestamp;temperature;humidity
19090;DHT22;9677;50.656;13.064;2023-03-01T02:28:04;1.30;54.40
19090;DHT22;9677;50.656;13.064;2023-03-01T03:11:47;1.10;54.50
19090;DHT22;9677;50.656;13.064;2023-03-01T03:38:14;0.80;54.10
19090;DHT22;9677;50.656;13.064;2023-03-01T03:47:29;0.70;54.40
19090;DHT22;9677;50.656;13.064;2023-03-01T03:53:39;0.70;54.40
19090;DHT22;9677;50.656;13.064;2023-03-01T03:59:49;0.70;54.40
19090;DHT22;9677;50.656;13.064;2023-03-01T04:02:18;1.50;54.40
19090;DHT22;9677;50.656;13.064;2023-03-01T04:04:56;0.60;54.00
19090;DHT22;9677;50.656;13.064;2023-03-01T04:07:28;2.10;54.70
19090;DHT22;9677;50.656;13.064;2023-03-01T04:10:02;1.20;54.50
19090;DHT22;9677;50.656;13.064;2023-03-01T04:12:32;1.70;54.70
19090;DHT22;9677;50.656;13.064;2023-03-01T04:15:02;1.50;54.70
19090;DHT22;9677;50.656;13.064;2023-03-01T04:17:41;0.50;54.30
19090;DHT22;9677;50.656;13.064;2023-03-01T04:20:12;1.40;54.80
19090;DHT22;9677;50.656;13.064;2023-03-01T04:22:44;0.50;54.50
19090;DHT22;9677;50.656;13.064;2023-03-01T04:25:15;0.50;54.40
19090;DHT22;9677;50.656;13.064;2023-03-01T04:27:45;0.50;54.30
19090;DHT22;9677;50.656;13.064;2023-03-01T04:30:14;1.50;54.90
19090;DHT22;9677;50.656;13.064;2023-03-01T04:32:43;0.50;54.40
19090;DHT22;9677;50.656;13.064;2023-03-01T04:35:11;0.40;54.30
19090;DHT22;9677;50.656;13.064;2023-03-01T04:37:40;0.40;54.20
19090;DHT22;9677;50.656;13.064;2023-03-01T04:40:09;0.40;54.20
19090;DHT22;9677;50.656;13.064;2023-03-01T04:42:44;0.40;54.10
19090;DHT22;9677;50.656;13.064;2023-03-01T04:45:14;0.40;54.00
19090;DHT22;9677;50.656;13.064;2023-03-01T04:47:44;0.30;54.00
19090;DHT22;9677;50.656;13.064;2023-03-01T04:50:15;0.30;54.10
19090;DHT22;9677;50.656;13.064;2023-03-01T04:52:49;0.30;54.00
19090;DHT22;9677;50.656;13.064;2023-03-01T04:55:18;1.20;54.50
19090;DHT22;9677;50.656;13.064;2023-03-01T04:57:48;0.20;54.00
19090;DHT22;9677;50.656;13.064;2023-03-01T05:00:17;0.20;54.00
19090;DHT22;9677;50.656;13.064;2023-03-01T05:02:50;0.20;54.00
19090;DHT22;9677;50.656;13.064;2023-03-01T05:05:23;0.20;54.10
19090;DHT22;9677;50.656;13.064;2023-03-01T05:07:54;0.20;54.20
19090;DHT22;9677;50.656;13.064;2023-03-01T05:10:24;0.10;54.10
19090;DHT22;9677;50.656;13.064;2023-03-01T05:12:57;0.10;54.00
19090;DHT22;9677;50.656;13.064;2023-03-01T05:15:28;0.10;53.90
19090;DHT22;9677;50.656;13.064;2023-03-01T05:21:27;0.00;53.90
19090;DHT22;9677;50.656;13.064;2023-03-01T05:24:07;-0.10;53.80
19090;DHT22;9677;50.656;13.064;2023-03-01T05:26:38;-0.30;53.80
19090;DHT22;9677;50.656;13.064;2023-03-01T05:29:14;0.70;54.20
19090;DHT22;9677;50.656;13.064;2023-03-01T05:31:50;-0.20;53.70
19090;DHT22;9677;50.656;13.064;2023-03-01T05:34:23;-0.20;53.80
19090;DHT22;9677;50.656;13.064;2023-03-01T05:36:53;0.30;54.00
19090;DHT22;9677;50.656;13.064;2023-03-01T05:39:24;-0.30;53.80
19090;DHT22;9677;50.656;13.064;2023-03-01T05:41:54;-0.30;53.90
19090;DHT22;9677;50.656;13.064;2023-03-01T05:44:25;-0.40;53.90
19090;DHT22;9677;50.656;13.064;2023-03-01T05:46:54;-0.40;53.80
19090;DHT22;9677;50.656;13.064;2023-03-01T05:49:23;-0.40;53.90
19090;DHT22;9677;50.656;13.064;2023-03-01T05:51:53;-0.40;53.90
19090;DHT22;9677;50.656;13.064;2023-03-01T05:54:23;-0.50;54.00
19090;DHT22;9677;50.656;13.064;2023-03-01T05:56:51;-0.50;54.10
19090;DHT22;9677;50.656;13.064;2023-03-01T05:59:20;-0.50;54.10
19090;DHT22;9677;50.656;13.064;2023-03-01T06:01:50;-0.50;54.00
19090;DHT22;9677;50.656;13.064;2023-03-01T06:04:18;-0.50;54.00
19090;DHT22;9677;50.656;13.064;2023-03-01T06:06:48;-0.60;54.00
19090;DHT22;9677;50.656;13.064;2023-03-01T06:09:16;-0.60;54.00
19090;DHT22;9677;50.656;13.064;2023-03-01T06:11:48;-0.60;54.70
19090;DHT22;9677;50.656;13.064;2023-03-01T06:14:47;-0.40;54.10
19090;DHT22;9677;50.656;13.064;2023-03-01T06:17:17;-0.60;54.10
19090;DHT22;9677;50.656;13.064;2023-03-01T06:25:56;-0.70;54.00
19090;DHT22;9677;50.656;13.064;2023-03-01T06:28:33;-0.80;54.10
19090;DHT22;9677;50.656;13.064;2023-03-01T06:34:55;-0.70;54.00
19090;DHT22;9677;50.656;13.064;2023-03-01T06:37:26;-0.80;53.90
19090;DHT22;9677;50.656;13.064;2023-03-01T06:39:55;-0.90;54.00
19090;DHT22;9677;50.656;13.064;2023-03-01T06:42:24;-0.80;53.90
19090;DHT22;9677;50.656;13.064;2023-03-01T06:44:55;0.70;54.80
19090;DHT22;9677;50.656;13.064;2023-03-01T06:47:31;-0.10;54.40
19090;DHT22;9677;50.656;13.064;2023-03-01T06:53:08;-1.00;54.10
19090;DHT22;9677;50.656;13.064;2023-03-01T06:55:37;-1.00;54.10
19090;DHT22;9677;50.656;13.064;2023-03-01T06:58:05;-0.90;54.10
19090;DHT22;9677;50.656;13.064;2023-03-01T07:00:34;-0.90;54.80
19090;DHT22;9677;50.656;13.064;2023-03-01T07:03:03;-0.90;54.30
19090;DHT22;9677;50.656;13.064;2023-03-01T07:05:33;-0.90;54.40
19090;DHT22;9677;50.656;13.064;2023-03-01T07:08:02;-0.90;54.40
19090;DHT22;9677;50.656;13.064;2023-03-01T07:10:31;-0.90;54.50
19090;DHT22;9677;50.656;13.064;2023-03-01T07:12:59;-0.90;54.50
19090;DHT22;9677;50.656;13.064;2023-03-01T07:15:28;-0.90;54.40
19090;DHT22;9677;50.656;13.064;2023-03-01T07:17:56;-0.90;54.40
19090;DHT22;9677;50.656;13.064;2023-03-01T07:20:25;-0.90;54.40
19090;DHT22;9677;50.656;13.064;2023-03-01T07:22:55;-0.80;54.40
19090;DHT22;9677;50.656;13.064;2023-03-01T07:25:25;-0.80;54.30
19090;DHT22;9677;50.656;13.064;2023-03-01T07:27:54;-0.80;54.20
19090;DHT22;9677;50.656;13.064;2023-03-01T07:30:22;-0.90;54.20
19090;DHT22;9677;50.656;13.064;2023-03-01T07:32:53;-0.90;54.20
19090;DHT22;9677;50.656;13.064;2023-03-01T07:35:22;-0.90;54.30
19090;DHT22;9677;50.656;13.064;2023-03-01T07:37:51;-0.90;54.30
19090;DHT22;9677;50.656;13.064;2023-03-01T07:40:21;-0.90;54.40
19090;DHT22;9677;50.656;13.064;2023-03-01T07:42:55;-0.90;54.40
19090;DHT22;9677;50.656;13.064;2023-03-01T07:45:24;-0.90;55.10
19090;DHT22;9677;50.656;13.064;2023-03-01T07:47:53;-0.90;54.50
19090;DHT22;9677;50.656;13.064;2023-03-01T07:50:22;-0.90;54.60
19090;DHT22;9677;50.656;13.064;2023-03-01T07:52:51;-0.90;54.50
19090;DHT22;9677;50.656;13.064;2023-03-01T07:55:20;-0.90;54.60
19090;DHT22;9677;50.656;13.064;2023-03-01T07:57:49;-0.90;54.60
19090;DHT22;9677;50.656;13.064;2023-03-01T08:00:18;-0.90;54.60
19090;DHT22;9677;50.656;13.064;2023-03-01T08:02:47;-0.90;54.70
19090;DHT22;9677;50.656;13.064;2023-03-01T08:05:15;-0.90;54.80
19090;DHT22;9677;50.656;13.064;2023-03-01T08:07:44;-0.90;54.80
19090;DHT22;9677;50.656;13.064;2023-03-01T08:10:12;-0.90;54.80
19090;DHT22;9677;50.656;13.064;2023-03-01T08:12:42;-0.80;54.80
19090;DHT22;9677;50.656;13.064;2023-03-01T08:15:11;-0.80;54.80
19090;DHT22;9677;50.656;13.064;2023-03-01T08:17:39;-0.80;54.80
19090;DHT22;9677;50.656;13.064;2023-03-01T08:20:09;-0.80;54.80
19090;DHT22;9677;50.656;13.064;2023-03-01T08:22:39;-0.80;54.90
19090;DHT22;9677;50.656;13.064;2023-03-01T08:25:08;-0.80;54.90
19090;DHT22;9677;50.656;13.064;2023-03-01T08:27:37;-0.80;55.00
19090;DHT22;9677;50.656;13.064;2023-03-01T08:30:08;-0.80;55.00
19090;DHT22;9677;50.656;13.064;2023-03-01T08:32:38;-0.80;55.20
19090;DHT22;9677;50.656;13.064;2023-03-01T08:35:08;-0.70;55.20
19090;DHT22;9677;50.656;13.064;2023-03-01T08:37:36;-0.70;55.20
19090;DHT22;9677;50.656;13.064;2023-03-01T08:40:06;-0.70;55.20
19090;DHT22;9677;50.656;13.064;2023-03-01T08:42:37;-0.60;55.40
19090;DHT22;9677;50.656;13.064;2023-03-01T08:45:08;-1.00;55.20
19090;DHT22;9677;50.656;13.064;2023-03-01T08:47:37;-0.60;55.50
19090;DHT22;9677;50.656;13.064;2023-03-01T08:50:07;-0.50;55.50
19090;DHT22;9677;50.656;13.064;2023-03-01T08:52:36;-0.50;55.70
19090;DHT22;9677;50.656;13.064;2023-03-01T08:55:05;-0.40;55.70
19090;DHT22;9677;50.656;13.064;2023-03-01T08:57:35;-0.40;55.80
19090;DHT22;9677;50.656;13.064;2023-03-01T09:00:04;-0.30;55.90
19090;DHT22;9677;50.656;13.064;2023-03-01T09:02:36;-0.20;56.00
19090;DHT22;9677;50.656;13.064;2023-03-01T09:05:06;-0.10;56.10
19090;DHT22;9677;50.656;13.064;2023-03-01T09:07:34;-0.10;56.10
19090;DHT22;9677;50.656;13.064;2023-03-01T09:10:03;0.10;56.20
19090;DHT22;9677;50.656;13.064;2023-03-01T09:12:32;0.10;56.20
19090;DHT22;9677;50.656;13.064;2023-03-01T09:15:01;0.20;56.20
19090;DHT22;9677;50.656;13.064;2023-03-01T09:17:29;0.30;56.30
19090;DHT22;9677;50.656;13.064;2023-03-01T09:19:59;0.40;56.30
19090;DHT22;9677;50.656;13.064;2023-03-01T09:22:27;0.50;56.30
19090;DHT22;9677;50.656;13.064;2023-03-01T09:24:56;0.60;56.40
19090;DHT22;9677;50.656;13.064;2023-03-01T09:27:26;0.70;56.30
19090;DHT22;9677;50.656;13.064;2023-03-01T09:29:54;0.80;56.30
19090;DHT22;9677;50.656;13.064;2023-03-01T09:32:24;0.90;56.30
19090;DHT22;9677;50.656;13.064;2023-03-01T09:34:52;1.00;56.30
19090;DHT22;9677;50.656;13.064;2023-03-01T09:37:33;1.10;56.30
19090;DHT22;9677;50.656;13.064;2023-03-01T09:40:03;1.20;56.40
19090;DHT22;9677;50.656;13.064;2023-03-01T09:42:35;1.20;56.30
19090;DHT22;9677;50.656;13.064;2023-03-01T09:45:06;1.70;56.50
19090;DHT22;9677;50.656;13.064;2023-03-01T09:47:40;1.40;56.30
19090;DHT22;9677;50.656;13.064;2023-03-01T09:50:12;1.50;56.20
19090;DHT22;9677;50.656;13.064;2023-03-01T09:52:47;1.60;56.20
19090;DHT22;9677;50.656;13.064;2023-03-01T09:55:26;1.70;56.20
19090;DHT22;9677;50.656;13.064;2023-03-01T09:58:00;1.80;56.20
19090;DHT22;9677;50.656;13.064;2023-03-01T10:00:38;1.90;56.30
19090;DHT22;9677;50.656;13.064;2023-03-01T10:03:13;2.00;56.40
19090;DHT22;9677;50.656;13.064;2023-03-01T10:05:50;2.10;56.50
19090;DHT22;9677;50.656;13.064;2023-03-01T10:08:32;2.20;56.60
19090;DHT22;9677;50.656;13.064;2023-03-01T10:11:17;2.30;56.70
19090;DHT22;9677;50.656;13.064;2023-03-01T10:13:55;2.50;56.80
19090;DHT22;9677;50.656;13.064;2023-03-01T10:16:33;2.60;56.90
19090;DHT22;9677;50.656;13.064;2023-03-01T10:19:11;2.80;57.00
19090;DHT22;9677;50.656;13.064;2023-03-01T10:21:45;3.00;57.20
19090;DHT22;9677;50.656;13.064;2023-03-01T10:24:17;3.20;57.20
19090;DHT22;9677;50.656;13.064;2023-03-01T10:26:55;3.40;57.40
19090;DHT22;9677;50.656;13.064;2023-03-01T10:29:31;3.60;57.40
19090;DHT22;9677;50.656;13.064;2023-03-01T10:32:04;3.80;57.40
19090;DHT22;9677;50.656;13.064;2023-03-01T10:34:35;4.00;57.40
19090;DHT22;9677;50.656;13.064;2023-03-01T10:37:10;4.20;57.40
19090;DHT22;9677;50.656;13.064;2023-03-01T10:39:57;4.50;57.50
19090;DHT22;9677;50.656;13.064;2023-03-01T10:42:29;4.70;57.40
19090;DHT22;9677;50.656;13.064;2023-03-01T10:45:15;5.00;57.40
19090;DHT22;9677;50.656;13.064;2023-03-01T10:48:03;5.20;57.10
19090;DHT22;9677;50.656;13.064;2023-03-01T10:50:34;5.50;57.10
19090;DHT22;9677;50.656;13.064;2023-03-01T10:53:20;5.70;57.00
19090;DHT22;9677;50.656;13.064;2023-03-01T10:55:59;6.00;56.90
19090;DHT22;9677;50.656;13.064;2023-03-01T10:58:29;6.20;56.70
19090;DHT22;9677;50.656;13.064;2023-03-01T11:01:00;6.50;56.70
19090;DHT22;9677;50.656;13.064;2023-03-01T11:03:31;6.70;56.60
19090;DHT22;9677;50.656;13.064;2023-03-01T11:06:05;6.90;56.40
19090;DHT22;9677;50.656;13.064;2023-03-01T11:08:42;7.20;56.20
19090;DHT22;9677;50.656;13.064;2023-03-01T11:11:21;7.40;56.00
19090;DHT22;9677;50.656;13.064;2023-03-01T11:13:57;7.60;55.70
19090;DHT22;9677;50.656;13.064;2023-03-01T11:16:34;7.80;55.60
19090;DHT22;9677;50.656;13.064;2023-03-01T11:19:20;8.00;55.40
19090;DHT22;9677;50.656;13.064;2023-03-01T11:22:03;8.30;55.00
19090;DHT22;9677;50.656;13.064;2023-03-01T11:24:38;8.50;54.90
19090;DHT22;9677;50.656;13.064;2023-03-01T11:27:18;8.60;54.80
19090;DHT22;9677;50.656;13.064;2023-03-01T11:29:54;8.80;54.50
19090;DHT22;9677;50.656;13.064;2023-03-01T11:32:26;9.00;54.50
19090;DHT22;9677;50.656;13.064;2023-03-01T11:35:03;9.20;54.30
19090;DHT22;9677;50.656;13.064;2023-03-01T11:40:54;9.50;53.90
19090;DHT22;9677;50.656;13.064;2023-03-01T11:43:38;10.50;54.00
19090;DHT22;9677;50.656;13.064;2023-03-01T11:49:38;9.90;52.80
19090;DHT22;9677;50.656;13.064;2023-03-01T11:52:21;10.00;52.60
19090;DHT22;9677;50.656;13.064;2023-03-01T11:55:07;10.10;52.70
19090;DHT22;9677;50.656;13.064;2023-03-01T11:57:59;10.10;52.60
19090;DHT22;9677;50.656;13.064;2023-03-01T12:00:52;10.20;52.20
19090;DHT22;9677;50.656;13.064;2023-03-01T12:03:37;10.90;52.40
19090;DHT22;9677;50.656;13.064;2023-03-01T12:06:27;10.30;52.10
19090;DHT22;9677;50.656;13.064;2023-03-01T12:09:09;10.30;51.80
19090;DHT22;9677;50.656;13.064;2023-03-01T12:12:38;10.30;51.80
19090;DHT22;9677;50.656;13.064;2023-03-01T12:15:39;10.40;51.40
19090;DHT22;9677;50.656;13.064;2023-03-01T12:18:25;10.60;51.40
19090;DHT22;9677;50.656;13.064;2023-03-01T12:21:14;10.40;51.50
19090;DHT22;9677;50.656;13.064;2023-03-01T12:24:12;10.30;51.50
19090;DHT22;9677;50.656;13.064;2023-03-01T12:26:59;10.30;51.40
19090;DHT22;9677;50.656;13.064;2023-03-01T12:29:41;10.30;51.50
19090;DHT22;9677;50.656;13.064;2023-03-01T12:32:22;10.40;51.40
19090;DHT22;9677;50.656;13.064;2023-03-01T12:38:14;10.30;50.80
19090;DHT22;9677;50.656;13.064;2023-03-01T12:41:17;10.30;51.00
19090;DHT22;9677;50.656;13.064;2023-03-01T12:44:01;10.20;50.70
19090;DHT22;9677;50.656;13.064;2023-03-01T12:46:47;10.10;50.90
19090;DHT22;9677;50.656;13.064;2023-03-01T12:49:25;10.00;50.90
19090;DHT22;9677;50.656;13.064;2023-03-01T12:52:01;10.00;51.10
19090;DHT22;9677;50.656;13.064;2023-03-01T12:54:36;10.00;50.90
19090;DHT22;9677;50.656;13.064;2023-03-01T12:57:12;9.90;50.90
19090;DHT22;9677;50.656;13.064;2023-03-01T12:59:51;9.90;50.90
19090;DHT22;9677;50.656;13.064;2023-03-01T13:04:12;9.80;50.90
19090;DHT22;9677;50.656;13.064;2023-03-01T13:06:31;9.80;50.70
19090;DHT22;9677;50.656;13.064;2023-03-01T13:09:27;10.00;50.90
19090;DHT22;9677;50.656;13.064;2023-03-01T13:12:01;9.70;51.00
19090;DHT22;9677;50.656;13.064;2023-03-01T13:14:46;9.60;51.20
19090;DHT22;9677;50.656;13.064;2023-03-01T13:17:39;9.60;51.20
19090;DHT22;9677;50.656;13.064;2023-03-01T13:20:14;9.50;51.10
19090;DHT22;9677;50.656;13.064;2023-03-01T13:32:19;9.30;51.30
19090;DHT22;9677;50.656;13.064;2023-03-01T13:35:47;9.30;51.40
19090;DHT22;9677;50.656;13.064;2023-03-01T13:38:38;9.20;51.10
19090;DHT22;9677;50.656;13.064;2023-03-01T13:41:14;9.20;51.30
19090;DHT22;9677;50.656;13.064;2023-03-01T13:43:46;9.10;51.50
19090;DHT22;9677;50.656;13.064;2023-03-01T13:49:17;9.10;51.70
19090;DHT22;9677;50.656;13.064;2023-03-01T13:51:47;9.10;51.70
19090;DHT22;9677;50.656;13.064;2023-03-01T13:54:25;9.10;51.70
19090;DHT22;9677;50.656;13.064;2023-03-01T13:57:00;10.00;52.10
19090;DHT22;9677;50.656;13.064;2023-03-01T13:59:29;9.10;52.30
19090;DHT22;9677;50.656;13.064;2023-03-01T14:01:58;9.30;51.80
19090;DHT22;9677;50.656;13.064;2023-03-01T14:04:31;9.10;51.70
19090;DHT22;9677;50.656;13.064;2023-03-01T14:07:10;9.00;51.60
19090;DHT22;9677;50.656;13.064;2023-03-01T14:09:41;9.00;51.60
19090;DHT22;9677;50.656;13.064;2023-03-01T14:12:22;9.00;51.70
19090;DHT22;9677;50.656;13.064;2023-03-01T14:14:58;9.00;51.70
19090;DHT22;9677;50.656;13.064;2023-03-01T14:17:52;8.90;51.70
19090;DHT22;9677;50.656;13.064;2023-03-01T14:20:27;8.90;51.60
19090;DHT22;9677;50.656;13.064;2023-03-01T14:23:00;8.90;51.70
19090;DHT22;9677;50.656;13.064;2023-03-01T14:25:32;8.90;51.80
19090;DHT22;9677;50.656;13.064;2023-03-01T14:28:10;9.10;51.90
19090;DHT22;9677;50.656;13.064;2023-03-01T14:30:43;8.90;51.90
19090;DHT22;9677;50.656;13.064;2023-03-01T14:33:21;9.20;52.10
19090;DHT22;9677;50.656;13.064;2023-03-01T14:35:58;8.80;51.90
19090;DHT22;9677;50.656;13.064;2023-03-01T14:38:33;8.80;51.70
19090;DHT22;9677;50.656;13.064;2023-03-01T14:41:05;8.80;51.80
19090;DHT22;9677;50.656;13.064;2023-03-01T14:43:35;8.70;51.70
19090;DHT22;9677;50.656;13.064;2023-03-01T14:46:05;8.70;51.80
19090;DHT22;9677;50.656;13.064;2023-03-01T14:48:33;8.70;51.80
19090;DHT22;9677;50.656;13.064;2023-03-01T14:51:04;8.70;51.90
19090;DHT22;9677;50.656;13.064;2023-03-01T14:53:33;8.60;51.80
19090;DHT22;9677;50.656;13.064;2023-03-01T14:56:16;8.60;51.90
19090;DHT22;9677;50.656;13.064;2023-03-01T14:58:46;8.50;51.90
19090;DHT22;9677;50.656;13.064;2023-03-01T15:01:19;8.70;52.10
19090;DHT22;9677;50.656;13.064;2023-03-01T15:03:51;8.90;52.30
19090;DHT22;9677;50.656;13.064;2023-03-01T15:06:22;8.50;52.20
19090;DHT22;9677;50.656;13.064;2023-03-01T15:08:52;8.50;52.10
19090;DHT22;9677;50.656;13.064;2023-03-01T15:11:28;8.70;52.30
19090;DHT22;9677;50.656;13.064;2023-03-01T15:13:58;8.60;52.20
19090;DHT22;9677;50.656;13.064;2023-03-01T15:16:27;8.40;52.20
19090;DHT22;9677;50.656;13.064;2023-03-01T15:19:00;8.40;52.20
19090;DHT22;9677;50.656;13.064;2023-03-01T15:21:32;8.40;52.20
19090;DHT22;9677;50.656;13.064;2023-03-01T15:24:05;8.30;52.20
19090;DHT22;9677;50.656;13.064;2023-03-01T15:26:41;8.30;52.20
19090;DHT22;9677;50.656;13.064;2023-03-01T15:29:16;8.30;52.20
19090;DHT22;9677;50.656;13.064;2023-03-01T15:31:55;8.60;52.40
19090;DHT22;9677;50.656;13.064;2023-03-01T15:34:27;8.30;52.30
19090;DHT22;9677;50.656;13.064;2023-03-01T15:36:59;8.20;52.30
19090;DHT22;9677;50.656;13.064;2023-03-01T15:39:35;8.20;52.40
19090;DHT22;9677;50.656;13.064;2023-03-01T15:42:07;8.20;52.40
19090;DHT22;9677;50.656;13.064;2023-03-01T15:44:39;8.20;52.40
19090;DHT22;9677;50.656;13.064;2023-03-01T15:47:27;8.20;52.40
19090;DHT22;9677;50.656;13.064;2023-03-01T15:49:57;8.20;52.30
19090;DHT22;9677;50.656;13.064;2023-03-01T15:52:33;8.20;52.40
19090;DHT22;9677;50.656;13.064;2023-03-01T15:55:14;8.40;52.50
19090;DHT22;9677;50.656;13.064;2023-03-01T15:57:44;8.10;52.40
19090;DHT22;9677;50.656;13.064;2023-03-01T16:00:14;8.10;52.40
19090;DHT22;9677;50.656;13.064;2023-03-01T16:02:44;8.10;52.40
19090;DHT22;9677;50.656;13.064;2023-03-01T16:05:18;8.10;52.40
19090;DHT22;9677;50.656;13.064;2023-03-01T16:07:50;8.00;52.30
19090;DHT22;9677;50.656;13.064;2023-03-01T16:10:19;8.10;52.30
19090;DHT22;9677;50.656;13.064;2023-03-01T16:12:48;8.00;52.90
19090;DHT22;9677;50.656;13.064;2023-03-01T16:15:19;8.00;52.40
19090;DHT22;9677;50.656;13.064;2023-03-01T16:17:49;7.90;52.30
19090;DHT22;9677;50.656;13.064;2023-03-01T16:20:22;8.00;52.30
19090;DHT22;9677;50.656;13.064;2023-03-01T16:22:59;7.90;52.30
19090;DHT22;9677;50.656;13.064;2023-03-01T16:25:29;7.90;52.30
19090;DHT22;9677;50.656;13.064;2023-03-01T16:27:59;7.80;52.80
19090;DHT22;9677;50.656;13.064;2023-03-01T16:30:31;7.80;52.20
19090;DHT22;9677;50.656;13.064;2023-03-01T16:33:03;7.70;52.20
19090;DHT22;9677;50.656;13.064;2023-03-01T16:35:50;7.70;52.30
19090;DHT22;9677;50.656;13.064;2023-03-01T16:38:20;7.60;52.20
19090;DHT22;9677;50.656;13.064;2023-03-01T16:40:51;7.50;52.20
19090;DHT22;9677;50.656;13.064;2023-03-01T16:43:19;7.40;52.20
19090;DHT22;9677;50.656;13.064;2023-03-01T16:45:48;7.70;52.40
19090;DHT22;9677;50.656;13.064;2023-03-01T16:48:16;7.30;52.20
19090;DHT22;9677;50.656;13.064;2023-03-01T16:50:45;7.40;52.30
19090;DHT22;9677;50.656;13.064;2023-03-01T16:53:13;7.20;52.30
19090;DHT22;9677;50.656;13.064;2023-03-01T16:55:42;7.40;52.50
19090;DHT22;9677;50.656;13.064;2023-03-01T16:58:12;7.10;52.40
19090;DHT22;9677;50.656;13.064;2023-03-01T17:00:42;7.20;52.50
19090;DHT22;9677;50.656;13.064;2023-03-01T17:03:10;7.00;52.50
19090;DHT22;9677;50.656;13.064;2023-03-01T17:05:40;6.90;52.50
19090;DHT22;9677;50.656;13.064;2023-03-01T17:08:09;6.80;52.50
19090;DHT22;9677;50.656;13.064;2023-03-01T17:10:37;6.80;52.60
19090;DHT22;9677;50.656;13.064;2023-03-01T17:13:07;6.90;52.70
19090;DHT22;9677;50.656;13.064;2023-03-01T17:15:38;6.70;52.70
19090;DHT22;9677;50.656;13.064;2023-03-01T17:18:08;6.70;52.80
19090;DHT22;9677;50.656;13.064;2023-03-01T17:20:36;6.60;52.80
19090;DHT22;9677;50.656;13.064;2023-03-01T17:23:05;6.60;52.80
19090;DHT22;9677;50.656;13.064;2023-03-01T17:25:33;6.50;52.80
19090;DHT22;9677;50.656;13.064;2023-03-01T17:28:02;6.50;52.80
19090;DHT22;9677;50.656;13.064;2023-03-01T17:30:31;6.60;52.90
19090;DHT22;9677;50.656;13.064;2023-03-01T17:33:00;6.40;52.90
19090;DHT22;9677;50.656;13.064;2023-03-01T17:35:28;6.60;53.00
19090;DHT22;9677;50.656;13.064;2023-03-01T17:37:57;6.30;53.00
19090;DHT22;9677;50.656;13.064;2023-03-01T17:40:26;6.30;53.00
19090;DHT22;9677;50.656;13.064;2023-03-01T17:42:54;6.90;53.30
19090;DHT22;9677;50.656;13.064;2023-03-01T17:45:23;6.20;53.10
19090;DHT22;9677;50.656;13.064;2023-03-01T17:47:52;6.20;53.10
19090;DHT22;9677;50.656;13.064;2023-03-01T17:50:21;6.10;53.10
19090;DHT22;9677;50.656;13.064;2023-03-01T17:52:49;6.10;53.10
19090;DHT22;9677;50.656;13.064;2023-03-01T17:55:18;6.30;53.30
19090;DHT22;9677;50.656;13.064;2023-03-01T17:57:47;6.00;53.20
19090;DHT22;9677;50.656;13.064;2023-03-01T18:00:16;6.10;53.30
19090;DHT22;9677;50.656;13.064;2023-03-01T18:02:45;5.90;53.20
19090;DHT22;9677;50.656;13.064;2023-03-01T18:05:15;5.90;53.20
19090;DHT22;9677;50.656;13.064;2023-03-01T18:07:43;5.90;53.20
19090;DHT22;9677;50.656;13.064;2023-03-01T18:10:12;6.10;53.30
19090;DHT22;9677;50.656;13.064;2023-03-01T18:12:40;5.80;53.20
19090;DHT22;9677;50.656;13.064;2023-03-01T18:15:09;5.80;53.20
19090;DHT22;9677;50.656;13.064;2023-03-01T18:17:38;5.70;53.30
19090;DHT22;9677;50.656;13.064;2023-03-01T18:20:08;5.70;53.30
19090;DHT22;9677;50.656;13.064;2023-03-01T18:22:41;5.60;53.40
19090;DHT22;9677;50.656;13.064;2023-03-01T18:25:09;5.60;53.30
19090;DHT22;9677;50.656;13.064;2023-03-01T18:27:37;5.60;53.40
19090;DHT22;9677;50.656;13.064;2023-03-01T18:30:07;5.50;53.50
19090;DHT22;9677;50.656;13.064;2023-03-01T18:32:36;5.50;53.50
19090;DHT22;9677;50.656;13.064;2023-03-01T18:35:06;5.70;53.60
19090;DHT22;9677;50.656;13.064;2023-03-01T18:37:35;5.40;53.50
19090;DHT22;9677;50.656;13.064;2023-03-01T18:40:07;5.40;53.50
19090;DHT22;9677;50.656;13.064;2023-03-01T18:42:36;5.40;53.60
19090;DHT22;9677;50.656;13.064;2023-03-01T18:45:07;5.40;53.50
19090;DHT22;9677;50.656;13.064;2023-03-01T18:47:36;5.40;53.60
19090;DHT22;9677;50.656;13.064;2023-03-01T18:50:05;5.40;53.50
19090;DHT22;9677;50.656;13.064;2023-03-01T18:52:34;5.30;53.60
19090;DHT22;9677;50.656;13.064;2023-03-01T18:55:05;5.30;53.60
19090;DHT22;9677;50.656;13.064;2023-03-01T18:57:33;5.30;53.60
19090;DHT22;9677;50.656;13.064;2023-03-01T19:00:02;5.20;53.50
19090;DHT22;9677;50.656;13.064;2023-03-01T19:02:31;5.50;53.70
19090;DHT22;9677;50.656;13.064;2023-03-01T19:04:59;5.20;53.60
19090;DHT22;9677;50.656;13.064;2023-03-01T19:07:28;5.20;53.60
19090;DHT22;9677;50.656;13.064;2023-03-01T19:09:57;5.70;53.90
19090;DHT22;9677;50.656;13.064;2023-03-01T19:12:27;5.80;53.90
19090;DHT22;9677;50.656;13.064;2023-03-01T19:14:56;5.10;53.60
19090;DHT22;9677;50.656;13.064;2023-03-01T19:17:25;5.10;53.60
19090;DHT22;9677;50.656;13.064;2023-03-01T19:19:57;5.30;53.70
19090;DHT22;9677;50.656;13.064;2023-03-01T19:22:25;5.10;53.60
19090;DHT22;9677;50.656;13.064;2023-03-01T19:24:54;5.60;53.90
19090;DHT22;9677;50.656;13.064;2023-03-01T19:27:22;5.00;53.60
19090;DHT22;9677;50.656;13.064;2023-03-01T19:29:52;5.20;53.70
19090;DHT22;9677;50.656;13.064;2023-03-01T19:32:20;4.90;53.60
19090;DHT22;9677;50.656;13.064;2023-03-01T19:34:49;4.90;54.10
19090;DHT22;9677;50.656;13.064;2023-03-01T19:37:17;5.00;53.70
19090;DHT22;9677;50.656;13.064;2023-03-01T19:39:45;4.90;53.70
19090;DHT22;9677;50.656;13.064;2023-03-01T19:42:14;4.90;53.70
19090;DHT22;9677;50.656;13.064;2023-03-01T19:44:42;4.80;53.70
19090;DHT22;9677;50.656;13.064;2023-03-01T19:47:12;5.30;53.90
19090;DHT22;9677;50.656;13.064;2023-03-01T19:49:40;4.80;53.70
19090;DHT22;9677;50.656;13.064;2023-03-01T19:52:09;4.70;53.70
19090;DHT22;9677;50.656;13.064;2023-03-01T19:54:37;4.70;53.70
19090;DHT22;9677;50.656;13.064;2023-03-01T19:57:06;4.70;53.70
19090;DHT22;9677;50.656;13.064;2023-03-01T19:59:34;4.70;53.80
19090;DHT22;9677;50.656;13.064;2023-03-01T20:02:03;4.60;53.70
19090;DHT22;9677;50.656;13.064;2023-03-01T20:04:33;4.60;53.70
19090;DHT22;9677;50.656;13.064;2023-03-01T20:07:01;4.60;53.70
19090;DHT22;9677;50.656;13.064;2023-03-01T20:09:29;4.60;53.70
19090;DHT22;9677;50.656;13.064;2023-03-01T20:11:58;4.50;53.70
19090;DHT22;9677;50.656;13.064;2023-03-01T20:14:26;4.50;53.60
19090;DHT22;9677;50.656;13.064;2023-03-01T20:16:54;4.50;53.70
19090;DHT22;9677;50.656;13.064;2023-03-01T20:19:23;4.40;53.70
19090;DHT22;9677;50.656;13.064;2023-03-01T20:21:53;4.40;53.80
19090;DHT22;9677;50.656;13.064;2023-03-01T20:24:21;4.30;53.80
19090;DHT22;9677;50.656;13.064;2023-03-01T20:26:50;4.30;53.80
19090;DHT22;9677;50.656;13.064;2023-03-01T20:29:19;4.30;53.90
19090;DHT22;9677;50.656;13.064;2023-03-01T20:31:47;4.30;53.90
19090;DHT22;9677;50.656;13.064;2023-03-01T20:34:16;4.20;53.80
19090;DHT22;9677;50.656;13.064;2023-03-01T20:36:44;4.20;54.50
19090;DHT22;9677;50.656;13.064;2023-03-01T20:39:14;4.20;53.90
19090;DHT22;9677;50.656;13.064;2023-03-01T20:41:42;4.10;53.80
19090;DHT22;9677;50.656;13.064;2023-03-01T20:44:11;4.10;53.90